Time;durP1;ratioP1;P1;durP2;ratioP2;P2;SDS_P1;SDS_P2;PMS_P1;PMS_P2;Temp;Humidity;BMP_temperature;BMP_pressure;BME280_temperature;BME280_humidity;BME280_pressure;Samples;Min_cycle;Max_cycle;Signal;HPM_P1;HPM_P2
2023/02/14 00:02:07;;;;;;;200.83;30.93;;;-0.10;99.90;;;;;;5032601;28;21068;-81
2023/02/14 00:04:37;;;;;;;163.57;31.27;;;-0.20;99.90;;;;;;5031915;28;20021;-81
2023/02/14 00:07:03;;;;;;;65.70;31.13;;;-0.20;99.90;;;;;;5033436;28;20024;-81
2023/02/14 00:09:28;;;;;;;210.43;31.73;;;-0.20;99.90;;;;;;5034277;28;20412;-81
2023/02/14 00:11:54;;;;;;;147.53;30.90;;;-0.20;99.90;;;;;;5036160;28;20037;-81
2023/02/14 00:17:04;;;;;;;138.03;29.53;;;-0.20;99.90;;;;;;5033899;28;20044;-81
2023/02/14 00:19:30;;;;;;;78.27;28.83;;;-0.20;99.90;;;;;;5032291;28;20037;-81
2023/02/14 00:21:56;;;;;;;99.40;28.90;;;-0.20;99.90;;;;;;5032389;28;20021;-81
2023/02/14 00:24:24;;;;;;;101.73;28.20;;;-0.20;99.90;;;;;;5031622;28;20095;-81
2023/02/14 00:26:51;;;;;;;166.00;28.67;;;-0.20;99.90;;;;;;5030866;28;20029;-81
2023/02/14 00:29:21;;;;;;;114.00;28.03;;;-0.20;99.90;;;;;;5031437;28;20044;-82
2023/02/14 00:31:47;;;;;;;99.03;28.27;;;-0.20;99.90;;;;;;5030053;28;20025;-81
2023/02/14 00:34:14;;;;;;;68.70;27.23;;;-0.30;99.90;;;;;;5030655;28;21061;-81
2023/02/14 00:36:40;;;;;;;108.90;27.60;;;-0.30;99.90;;;;;;5030165;28;20115;-81
2023/02/14 00:39:09;;;;;;;151.73;28.43;;;-0.30;99.90;;;;;;5030446;28;20034;-81
2023/02/14 00:41:34;;;;;;;160.27;28.30;;;-0.30;99.90;;;;;;5029342;28;20433;-81
2023/02/14 00:44:00;;;;;;;142.13;29.83;;;-0.30;99.90;;;;;;5031014;28;20094;-81
2023/02/14 00:46:27;;;;;;;162.43;30.93;;;-0.30;99.90;;;;;;5031259;28;20025;-81
2023/02/14 00:48:52;;;;;;;128.47;29.27;;;-0.30;99.90;;;;;;5031541;28;20037;-81
2023/02/14 00:51:19;;;;;;;159.33;32.37;;;-0.40;99.90;;;;;;5030008;28;20041;-81
2023/02/14 00:53:46;;;;;;;139.23;29.77;;;-0.40;99.90;;;;;;5031050;28;20122;-81
2023/02/14 00:56:15;;;;;;;216.07;30.17;;;-0.40;99.90;;;;;;5030566;28;20021;-81
2023/02/14 00:58:41;;;;;;;117.43;30.63;;;-0.50;99.90;;;;;;5029288;28;20057;-81
2023/02/14 01:01:07;;;;;;;231.97;31.43;;;-0.50;99.90;;;;;;5030181;28;20160;-81
2023/02/14 01:03:33;;;;;;;295.50;32.47;;;-0.50;99.90;;;;;;5029764;28;20049;-81
2023/02/14 01:05:58;;;;;;;84.73;27.83;;;-0.60;99.90;;;;;;5028403;28;20122;-81
2023/02/14 01:08:24;;;;;;;94.27;30.60;;;-0.60;99.90;;;;;;5029530;28;20132;-81
2023/02/14 01:10:50;;;;;;;125.67;28.10;;;-0.60;99.90;;;;;;5029367;28;20030;-81
2023/02/14 01:13:17;;;;;;;97.73;28.23;;;-0.60;99.90;;;;;;5030466;28;20044;-81
2023/02/14 01:15:48;;;;;;;164.10;28.30;;;-0.60;99.90;;;;;;5029474;28;20029;-81
2023/02/14 01:18:15;;;;;;;193.63;30.27;;;-0.60;99.90;;;;;;5029905;28;20087;-81
2023/02/14 01:20:40;;;;;;;177.47;30.27;;;-0.70;99.90;;;;;;5028570;28;20041;-81
2023/02/14 01:23:06;;;;;;;136.50;29.80;;;-0.70;99.90;;;;;;5030474;28;20859;-81
2023/02/14 01:25:32;;;;;;;118.23;29.13;;;-0.70;99.90;;;;;;5030372;28;20035;-81
2023/02/14 01:27:58;;;;;;;88.57;30.20;;;-0.70;99.90;;;;;;5030083;28;20142;-81
2023/02/14 01:30:24;;;;;;;98.90;29.50;;;-0.70;99.90;;;;;;5030440;28;20033;-81
2023/02/14 01:32:50;;;;;;;100.40;29.93;;;-0.70;99.90;;;;;;5030435;28;20133;-81
2023/02/14 01:35:16;;;;;;;95.33;28.70;;;-0.70;99.90;;;;;;5029371;28;20044;-81
2023/02/14 01:37:41;;;;;;;123.60;29.10;;;-0.70;99.90;;;;;;5030581;28;20048;-81
2023/02/14 01:40:10;;;;;;;60.47;27.80;;;-0.60;99.90;;;;;;5029860;28;20080;-81
2023/02/14 01:42:36;;;;;;;65.73;28.00;;;-0.70;99.90;;;;;;5028480;28;20480;-81
2023/02/14 01:45:03;;;;;;;56.47;28.03;;;-0.70;99.90;;;;;;5028681;28;20025;-81
2023/02/14 01:47:33;;;;;;;71.17;27.40;;;-0.70;99.90;;;;;;5032854;28;20017;-81
2023/02/14 01:50:10;;;;;;;50.90;27.30;;;-0.70;99.90;;;;;;5034493;28;20021;-81
2023/02/14 01:52:52;;;;;;;166.87;28.77;;;-0.70;99.90;;;;;;5034590;28;20017;-81
2023/02/14 01:55:25;;;;;;;79.63;26.67;;;-0.70;99.90;;;;;;5034125;28;20098;-81
2023/02/14 01:57:57;;;;;;;55.70;27.07;;;-0.60;99.90;;;;;;5032778;28;20029;-81
2023/02/14 02:03:08;;;;;;;63.30;25.20;;;-0.60;99.90;;;;;;5035008;28;20543;-81
2023/02/14 02:05:37;;;;;;;44.50;25.97;;;-0.60;99.90;;;;;;5033475;28;20108;-81
2023/02/14 02:08:03;;;;;;;81.37;26.37;;;-0.60;99.90;;;;;;5034041;28;20048;-81
2023/02/14 02:10:29;;;;;;;54.33;25.83;;;-0.50;99.90;;;;;;5032728;28;20044;-81
2023/02/14 02:12:58;;;;;;;92.50;24.90;;;-0.50;99.90;;;;;;5031499;28;20036;-81
2023/02/14 02:15:26;;;;;;;50.97;24.17;;;-0.60;99.90;;;;;;5033561;28;20029;-81
2023/02/14 02:18:10;;;;;;;92.43;25.20;;;-0.60;99.90;;;;;;5033977;28;20036;-81
2023/02/14 02:20:50;;;;;;;58.50;24.90;;;-0.60;99.90;;;;;;5033753;28;20029;-81
2023/02/14 02:23:22;;;;;;;75.37;24.87;;;-0.60;99.90;;;;;;5033415;28;20099;-81
2023/02/14 02:26:06;;;;;;;63.13;25.03;;;-0.60;99.90;;;;;;5033720;28;20033;-81
2023/02/14 02:28:46;;;;;;;83.10;26.00;;;-0.60;99.90;;;;;;5033867;28;20030;-81
2023/02/14 02:31:45;;;;;;;68.77;26.40;;;-0.60;99.90;;;;;;5032344;28;20374;-81
2023/02/14 02:34:35;;;;;;;98.40;26.67;;;-0.60;99.90;;;;;;5034195;28;20505;-81
2023/02/14 02:37:27;;;;;;;61.60;26.47;;;-0.60;99.90;;;;;;5032695;28;20187;-81
2023/02/14 02:40:11;;;;;;;53.37;25.47;;;-0.60;99.90;;;;;;5064236;28;20034;-81
2023/02/14 02:42:42;;;;;;;95.73;27.60;;;-0.60;99.90;;;;;;5031902;28;20052;-81
2023/02/14 02:45:27;;;;;;;107.73;27.83;;;-0.50;99.90;;;;;;5033552;28;20107;-81
2023/02/14 02:48:25;;;;;;;55.78;27.38;;;-0.50;99.90;;;;;;5033322;28;20029;-81
2023/02/14 02:53:50;;;;;;;118.23;26.37;;;-0.50;99.90;;;;;;5042638;28;20059;-81
2023/02/14 02:56:45;;;;;;;134.23;26.27;;;-0.50;99.90;;;;;;5042672;28;20021;-81
2023/02/14 02:59:19;;;;;;;105.38;26.58;;;-0.50;99.90;;;;;;5038384;28;20020;-81
2023/02/14 03:02:02;;;;;;;92.00;27.57;;;-0.50;99.90;;;;;;5040710;28;20044;-81
2023/02/14 03:04:51;;;;;;;169.67;27.70;;;-0.50;99.90;;;;;;5040188;28;20190;-81
2023/02/14 03:07:35;;;;;;;126.30;28.40;;;-0.50;99.90;;;;;;5038694;28;20580;-81
2023/02/14 03:10:12;;;;;;;77.07;27.27;;;-0.50;99.90;;;;;;5037266;28;20490;-81
2023/02/14 03:12:57;;;;;;;186.67;29.40;;;-0.50;99.90;;;;;;5033922;28;20038;-80
2023/02/14 03:15:26;;;;;;;;;;;-0.50;99.90;;;;;;5032374;28;20052;-80
2023/02/14 03:18:34;;;;;;;152.83;27.67;;;-0.50;99.90;;;;;;5030950;28;21383;-80
2023/02/14 03:21:09;;;;;;;144.90;28.77;;;-0.50;99.90;;;;;;5031532;28;20402;-80
2023/02/14 03:23:50;;;;;;;162.65;28.27;;;-0.50;99.90;;;;;;5032381;28;20040;-80
2023/02/14 03:26:19;;;;;;;140.43;27.87;;;-0.50;99.90;;;;;;5032535;28;20041;-81
2023/02/14 03:29:13;;;;;;;137.70;27.53;;;-0.50;99.90;;;;;;5032525;28;20025;-80
2023/02/14 03:32:17;;;;;;;119.73;26.60;;;-0.50;99.90;;;;;;5032469;28;20028;-80
2023/02/14 03:35:08;;;;;;;67.10;29.07;;;-0.50;99.90;;;;;;5003089;28;20030;-80
2023/02/14 03:37:42;;;;;;;129.73;27.00;;;-0.50;99.90;;;;;;5030611;28;20060;-80
2023/02/14 03:40:15;;;;;;;260.98;30.67;;;-0.50;99.90;;;;;;5031995;28;20026;-80
2023/02/14 03:43:04;;;;;;;130.70;27.17;;;-0.50;99.90;;;;;;5030980;28;20478;-80
2023/02/14 03:45:50;;;;;;;129.10;28.03;;;-0.50;99.90;;;;;;5032259;28;20021;-81
2023/02/14 03:48:17;;;;;;;;;;;-0.50;99.90;;;;;;5064672;28;20056;-81
2023/02/14 03:50:47;;;;;;;88.67;27.03;;;-0.50;99.90;;;;;;5032086;28;19958;-81
2023/02/14 03:53:15;;;;;;;56.57;27.43;;;-0.50;99.90;;;;;;5030599;28;20030;-81
2023/02/14 03:56:09;;;;;;;132.27;28.57;;;-0.50;99.90;;;;;;5031256;28;20022;-81
2023/02/14 03:58:39;;;;;;;85.23;29.53;;;-0.40;99.90;;;;;;5032048;28;20041;-81
2023/02/14 04:01:20;;;;;;;60.03;28.83;;;-0.40;99.90;;;;;;5063925;28;20470;-81
2023/02/14 04:03:47;;;;;;;126.60;27.23;;;-0.40;99.90;;;;;;5031470;28;20032;-81
2023/02/14 04:06:15;;;;;;;111.27;29.27;;;-0.40;99.90;;;;;;5063724;28;20033;-81
2023/02/14 04:08:41;;;;;;;146.17;28.47;;;-0.40;99.90;;;;;;5031725;28;20075;-81
2023/02/14 04:11:07;;;;;;;154.93;30.03;;;-0.40;99.90;;;;;;5031943;28;20152;-81
2023/02/14 04:13:34;;;;;;;47.63;27.53;;;-0.40;99.90;;;;;;5031549;28;20923;-81
2023/02/14 04:15:59;;;;;;;72.97;28.37;;;-0.40;99.90;;;;;;5030369;28;21485;-81
2023/02/14 04:21:09;;;;;;;87.17;27.37;;;-0.40;99.90;;;;;;5031023;28;20036;-81
2023/02/14 04:23:34;;;;;;;59.40;25.47;;;-0.30;99.90;;;;;;5031438;28;20033;-81
2023/02/14 04:26:02;;;;;;;67.83;25.87;;;-0.40;99.90;;;;;;5030514;28;20025;-81
2023/02/14 04:28:28;;;;;;;90.43;27.90;;;-0.30;99.90;;;;;;5029919;28;20033;-81
2023/02/14 04:30:53;;;;;;;75.77;26.13;;;-0.30;99.90;;;;;;5030943;28;20072;-81
2023/02/14 04:33:19;;;;;;;94.73;24.90;;;-0.30;99.90;;;;;;5030816;28;20047;-81
2023/02/14 04:35:44;;;;;;;164.00;26.50;;;-0.30;99.90;;;;;;5030179;28;20474;-81
2023/02/14 04:38:10;;;;;;;103.90;26.37;;;-0.40;99.90;;;;;;5030983;28;20065;-81
2023/02/14 04:40:35;;;;;;;94.73;25.27;;;-0.40;99.90;;;;;;5029955;28;20049;-81
2023/02/14 04:43:03;;;;;;;111.10;24.90;;;-0.40;99.90;;;;;;5030625;28;20049;-81
2023/02/14 04:45:29;;;;;;;45.27;25.00;;;-0.40;99.90;;;;;;5030494;28;20385;-81
2023/02/14 04:47:54;;;;;;;83.90;28.03;;;-0.50;99.90;;;;;;5062757;28;20044;-81
2023/02/14 04:50:22;;;;;;;139.13;26.17;;;-0.50;99.90;;;;;;5030987;28;20059;-81
2023/02/14 04:52:47;;;;;;;46.93;25.37;;;-0.40;99.90;;;;;;5030561;28;20049;-81
2023/02/14 04:55:13;;;;;;;96.03;25.33;;;-0.50;99.90;;;;;;5030214;28;20632;-81
2023/02/14 04:57:38;;;;;;;67.97;26.90;;;-0.50;99.90;;;;;;5030941;28;20134;-81
2023/02/14 05:00:05;;;;;;;50.67;25.07;;;-0.50;99.90;;;;;;5030682;28;20041;-81
2023/02/14 05:02:31;;;;;;;113.93;25.13;;;-0.50;99.90;;;;;;5031148;28;20034;-81
2023/02/14 05:04:56;;;;;;;71.67;25.23;;;-0.40;99.90;;;;;;5028869;28;20105;-81
2023/02/14 05:07:22;;;;;;;45.67;25.60;;;-0.40;99.90;;;;;;5031004;28;20029;-81
2023/02/14 05:09:49;;;;;;;62.20;24.63;;;-0.40;99.90;;;;;;5030602;28;20116;-81
2023/02/14 05:12:15;;;;;;;40.37;23.77;;;-0.40;99.90;;;;;;5030545;28;20029;-81
2023/02/14 05:14:41;;;;;;;82.27;24.33;;;-0.40;99.90;;;;;;5030561;28;20140;-80
2023/02/14 05:17:07;;;;;;;54.77;22.80;;;-0.40;99.90;;;;;;5029950;28;20052;-81
2023/02/14 05:19:32;;;;;;;34.33;20.83;;;-0.40;99.90;;;;;;5029274;28;20037;-81
2023/02/14 05:21:58;;;;;;;40.50;22.50;;;-0.40;99.90;;;;;;5029751;28;20025;-81
2023/02/14 05:24:23;;;;;;;42.60;22.50;;;-0.50;99.90;;;;;;5028716;28;20026;-81
2023/02/14 05:26:49;;;;;;;160.73;23.43;;;-0.40;99.90;;;;;;5040447;28;20114;-78
2023/02/14 05:29:15;;;;;;;74.73;23.00;;;-0.50;99.90;;;;;;5039842;28;20025;-78
2023/02/14 05:31:40;;;;;;;51.97;22.37;;;-0.50;99.90;;;;;;5043394;28;20036;-77
2023/02/14 05:34:06;;;;;;;54.40;22.37;;;-0.50;99.90;;;;;;5043334;28;20492;-78
2023/02/14 05:36:32;;;;;;;98.63;21.87;;;-0.60;99.90;;;;;;5039182;28;20041;-77
2023/02/14 05:38:57;;;;;;;69.10;21.80;;;-0.60;99.90;;;;;;5041416;28;20031;-77
2023/02/14 05:41:23;;;;;;;65.87;21.13;;;-0.60;99.90;;;;;;5040098;28;20032;-77
2023/02/14 05:43:48;;;;;;;97.80;23.03;;;-0.60;99.90;;;;;;5042679;28;20084;-77
2023/02/14 05:46:14;;;;;;;97.23;23.10;;;-0.70;99.90;;;;;;5042506;28;20504;-77
2023/02/14 05:48:39;;;;;;;57.37;22.33;;;-0.70;99.90;;;;;;5035991;28;20034;-77
2023/02/14 05:51:07;;;;;;;70.87;22.00;;;-0.70;99.90;;;;;;5040473;28;20021;-77
2023/02/14 05:53:35;;;;;;;37.07;22.30;;;-0.70;99.90;;;;;;5037820;28;20116;-77
2023/02/14 05:56:03;;;;;;;79.40;22.80;;;-0.70;99.90;;;;;;5041134;28;20029;-77
2023/02/14 05:58:29;;;;;;;70.20;21.47;;;-0.70;99.90;;;;;;5040554;28;20025;-77
2023/02/14 06:00:58;;;;;;;84.50;21.30;;;-0.70;99.90;;;;;;5043866;28;20151;-77
2023/02/14 06:03:24;;;;;;;58.60;22.10;;;-0.80;99.90;;;;;;5042141;28;20029;-77
2023/02/14 06:05:51;;;;;;;33.87;20.43;;;-0.80;99.90;;;;;;5044951;28;20024;-77
2023/02/14 06:08:19;;;;;;;37.90;20.37;;;-0.80;99.90;;;;;;5045599;28;20017;-77
2023/02/14 06:10:45;;;;;;;65.23;20.57;;;-0.80;99.90;;;;;;5045218;28;20025;-77
2023/02/14 06:13:10;;;;;;;39.63;20.97;;;-0.80;99.90;;;;;;5043887;28;20092;-79
2023/02/14 06:15:39;;;;;;;32.83;19.53;;;-0.80;99.90;;;;;;5041354;28;20163;-78
2023/02/14 06:18:05;;;;;;;47.83;20.47;;;-0.80;99.90;;;;;;5039950;28;20044;-78
2023/02/14 06:20:31;;;;;;;61.00;20.13;;;-0.80;99.90;;;;;;5041502;28;20036;-78
2023/02/14 06:22:57;;;;;;;101.47;19.20;;;-0.90;99.90;;;;;;5041446;28;20127;-78
2023/02/14 06:25:23;;;;;;;52.33;18.97;;;-0.90;99.90;;;;;;5040824;28;20036;-78
2023/02/14 06:27:50;;;;;;;110.27;19.00;;;-1.00;99.90;;;;;;5039312;28;20021;-78
2023/02/14 06:30:17;;;;;;;96.13;19.73;;;-1.00;99.90;;;;;;5043082;28;20498;-78
2023/02/14 06:32:42;;;;;;;87.33;19.23;;;-1.10;99.90;;;;;;5043372;28;20029;-78
2023/02/14 06:35:08;;;;;;;51.47;19.27;;;-1.10;99.90;;;;;;5048241;28;20030;-78
2023/02/14 06:37:34;;;;;;;65.57;18.83;;;-1.10;99.90;;;;;;5047474;28;20044;-78
2023/02/14 06:40:00;;;;;;;79.93;20.63;;;-1.10;99.90;;;;;;5040602;28;20029;-78
2023/02/14 06:42:26;;;;;;;99.70;19.23;;;-1.10;99.90;;;;;;5042214;28;20136;-78
2023/02/14 06:44:51;;;;;;;40.57;19.57;;;-1.20;99.90;;;;;;5041972;28;20056;-79
2023/02/14 06:47:17;;;;;;;89.17;20.33;;;-1.20;99.90;;;;;;5041158;28;20466;-79
2023/02/14 06:49:43;;;;;;;141.03;19.93;;;-1.10;99.90;;;;;;5043553;28;20036;-78
2023/02/14 06:52:08;;;;;;;56.97;19.90;;;-1.10;99.90;;;;;;5029081;22;20149;-77
2023/02/14 06:54:36;;;;;;;44.70;19.10;;;-1.10;99.90;;;;;;4991227;28;20101;-88
2023/02/14 06:57:02;;;;;;;48.93;18.73;;;-1.10;99.90;;;;;;4997181;28;20043;-81
2023/02/14 06:59:27;;;;;;;26.90;17.73;;;-1.10;99.90;;;;;;4994144;28;20117;-81
2023/02/14 07:01:53;;;;;;;45.73;18.77;;;-1.10;99.90;;;;;;4988078;28;20383;-81
2023/02/14 07:04:18;;;;;;;32.90;17.47;;;-1.10;99.90;;;;;;4992823;28;20058;-81
2023/02/14 07:06:45;;;;;;;43.47;18.20;;;-1.00;99.90;;;;;;4991639;28;20026;-82
2023/02/14 07:09:11;;;;;;;36.83;18.10;;;-1.00;99.90;;;;;;4993182;28;20080;-82
2023/02/14 07:11:36;;;;;;;38.27;17.90;;;-1.00;99.90;;;;;;4992310;28;20030;-81
2023/02/14 07:14:02;;;;;;;67.80;16.43;;;-1.00;99.90;;;;;;4990115;28;20477;-81
2023/02/14 07:16:27;;;;;;;57.70;17.17;;;-1.00;99.90;;;;;;4991976;28;20026;-81
2023/02/14 07:18:53;;;;;;;100.47;16.20;;;-1.00;99.90;;;;;;4991742;28;20125;-81
2023/02/14 07:21:19;;;;;;;77.30;17.37;;;-1.00;99.90;;;;;;4990320;28;20022;-81
2023/02/14 07:23:46;;;;;;;52.50;18.47;;;-1.10;99.90;;;;;;4998021;28;20030;-77
2023/02/14 07:26:16;;;;;;;88.97;19.63;;;-1.10;99.90;;;;;;4997645;28;20026;-77
2023/02/14 07:28:43;;;;;;;83.37;18.83;;;-1.10;99.90;;;;;;4997356;28;20033;-78
2023/02/14 07:31:08;;;;;;;52.77;19.97;;;-1.10;99.90;;;;;;5001791;28;20034;-78
2023/02/14 07:33:34;;;;;;;28.73;18.63;;;-1.10;99.90;;;;;;4991162;28;20041;-81
2023/02/14 07:36:04;;;;;;;39.03;18.90;;;-1.10;99.90;;;;;;4991343;28;20126;-81
2023/02/14 07:38:29;;;;;;;40.63;18.90;;;-1.00;99.90;;;;;;4990333;28;20044;-81
2023/02/14 07:40:55;;;;;;;65.60;18.80;;;-1.00;99.90;;;;;;4990738;28;20030;-81
2023/02/14 07:43:20;;;;;;;62.30;20.23;;;-1.00;99.90;;;;;;5013143;28;20063;-81
2023/02/14 07:45:48;;;;;;;71.33;19.40;;;-1.00;99.90;;;;;;4991918;28;21305;-81
2023/02/14 07:48:16;;;;;;;82.77;20.40;;;-1.00;99.90;;;;;;4992339;28;20759;-81
2023/02/14 07:50:42;;;;;;;29.70;19.70;;;-1.00;99.90;;;;;;4989936;28;21583;-82
2023/02/14 07:53:07;;;;;;;40.13;21.30;;;-1.00;99.90;;;;;;4988581;28;20056;-82
2023/02/14 07:55:33;;;;;;;34.53;20.07;;;-0.90;99.90;;;;;;4990880;28;20030;-82
2023/02/14 07:57:59;;;;;;;63.97;19.27;;;-0.90;99.90;;;;;;4989671;28;20038;-81
2023/02/14 08:00:25;;;;;;;47.70;20.13;;;-0.80;99.90;;;;;;4997289;28;20065;-78
2023/02/14 08:02:50;;;;;;;60.83;19.83;;;-0.80;99.90;;;;;;5004554;28;20017;-80
2023/02/14 08:05:16;;;;;;;61.03;19.90;;;-0.80;99.90;;;;;;5002487;28;20109;-77
2023/02/14 08:07:43;;;;;;;41.63;19.20;;;-0.80;99.90;;;;;;4996924;28;20037;-77
2023/02/14 08:10:09;;;;;;;70.37;20.30;;;-0.80;99.90;;;;;;4996981;28;20069;-77
2023/02/14 08:18:03;;;;;;;38.00;17.93;;;-0.60;99.90;;;;;;4996707;28;20029;-76
2023/02/14 08:20:28;;;;;;;93.30;17.40;;;-0.60;99.90;;;;;;4996486;28;20109;-76
2023/02/14 08:22:54;;;;;;;34.30;16.83;;;-0.60;99.90;;;;;;4994747;28;20030;-77
2023/02/14 08:25:20;;;;;;;47.67;17.07;;;-0.60;99.90;;;;;;5015720;28;20583;-76
2023/02/14 08:27:45;;;;;;;27.33;15.13;;;-0.60;99.90;;;;;;4996702;28;20037;-77
2023/02/14 08:30:11;;;;;;;31.67;16.53;;;-0.50;99.90;;;;;;4996509;28;20030;-77
2023/02/14 08:32:39;;;;;;;47.60;17.00;;;-0.50;99.90;;;;;;4995433;28;20041;-76
2023/02/14 08:35:08;;;;;;;28.63;16.17;;;-0.50;99.90;;;;;;4995108;28;20099;-77
2023/02/14 08:37:34;;;;;;;70.90;16.80;;;-0.50;99.90;;;;;;4995207;28;20509;-76
2023/02/14 08:39:59;;;;;;;62.47;17.67;;;-0.50;99.90;;;;;;4996660;28;20470;-76
2023/02/14 08:42:25;;;;;;;33.57;16.77;;;-0.60;99.90;;;;;;4996403;28;20042;-77
2023/02/14 08:44:50;;;;;;;43.57;17.43;;;-0.60;99.90;;;;;;4996308;28;20029;-76
2023/02/14 08:47:16;;;;;;;37.93;16.47;;;-0.60;99.90;;;;;;4997887;28;20033;-77
2023/02/14 08:49:41;;;;;;;39.30;14.93;;;-0.60;99.90;;;;;;4996758;28;20033;-76
2023/02/14 08:52:11;;;;;;;30.60;15.30;;;-0.50;99.90;;;;;;4994799;28;20064;-81
2023/02/14 08:54:37;;;;;;;31.97;16.03;;;-0.50;99.90;;;;;;4993359;28;20038;-81
2023/02/14 08:57:03;;;;;;;33.93;16.70;;;-0.50;99.90;;;;;;4995975;28;20033;-78
2023/02/14 08:59:29;;;;;;;59.20;17.17;;;-0.50;99.90;;;;;;5002398;28;20050;-77
2023/02/14 09:01:54;;;;;;;51.57;16.90;;;-0.50;99.90;;;;;;4999828;28;20089;-78
2023/02/14 09:04:20;;;;;;;30.10;17.70;;;-0.50;99.90;;;;;;5002102;28;20042;-77
2023/02/14 09:06:45;;;;;;;32.33;16.73;;;-0.50;99.90;;;;;;5000875;28;20117;-78
2023/02/14 09:09:11;;;;;;;36.87;16.47;;;-0.50;99.90;;;;;;4996885;28;20113;-85
2023/02/14 09:11:36;;;;;;;25.90;16.37;;;-0.50;99.90;;;;;;5004956;28;20040;-79
2023/02/14 09:14:02;;;;;;;98.20;17.77;;;-0.40;99.90;;;;;;5000541;28;20080;-77
2023/02/14 09:16:27;;;;;;;53.00;16.97;;;-0.40;99.90;;;;;;4990088;28;20030;-77
2023/02/14 09:18:53;;;;;;;36.77;16.50;;;-0.40;99.90;;;;;;4996052;28;20113;-77
2023/02/14 09:21:23;;;;;;;64.63;17.43;;;-0.50;99.90;;;;;;4997468;28;21095;-77
2023/02/14 09:23:48;;;;;;;28.17;16.37;;;-0.40;99.90;;;;;;4997125;28;20026;-77
2023/02/14 09:26:15;;;;;;;32.23;17.20;;;-0.30;99.90;;;;;;5002610;28;20096;-77
2023/02/14 09:28:41;;;;;;;33.57;18.13;;;-0.30;99.90;;;;;;5003917;28;20061;-77
2023/02/14 09:31:21;;;;;;;42.03;17.77;;;-0.30;99.90;;;;;;5002797;28;20041;-76
2023/02/14 09:39:22;;;;;;;53.90;18.20;;;-0.10;99.90;;;;;;4999068;28;20049;-77
2023/02/14 09:42:05;;;;;;;31.63;16.97;;;0.00;99.90;;;;;;4997942;28;20025;-77
2023/02/14 09:45:00;;;;;;;42.17;16.97;;;0.00;99.90;;;;;;4997765;28;20030;-77
2023/02/14 09:47:55;;;;;;;37.37;18.07;;;0.00;99.90;;;;;;4997573;28;20034;-78
2023/02/14 09:50:39;;;;;;;40.97;17.90;;;0.10;99.90;;;;;;4995156;28;20661;-77
2023/02/14 09:53:26;;;;;;;36.20;16.80;;;0.20;99.90;;;;;;4996879;28;20049;-77
2023/02/14 09:56:13;;;;;;;37.70;17.77;;;0.20;99.90;;;;;;5000109;28;20064;-77
2023/02/14 09:58:49;;;;;;;30.57;18.70;;;0.20;99.90;;;;;;5006902;28;20045;-77
2023/02/14 10:01:18;;;;;;;38.03;18.47;;;0.30;99.90;;;;;;5000481;28;20022;-77
2023/02/14 10:04:04;;;;;;;28.63;18.63;;;0.30;99.90;;;;;;4997856;28;20085;-77
2023/02/14 10:06:41;;;;;;;27.70;17.73;;;0.50;99.90;;;;;;4997163;28;20113;-77
2023/02/14 10:09:20;;;;;;;30.20;17.73;;;0.50;99.90;;;;;;5005144;28;20022;-79
2023/02/14 10:11:47;;;;;;;30.80;18.67;;;0.50;99.90;;;;;;5008413;28;20018;-78
2023/02/14 10:14:17;;;;;;;28.57;17.47;;;0.60;99.90;;;;;;5008574;28;20030;-79
2023/02/14 10:16:49;;;;;;;31.30;19.00;;;0.60;99.90;;;;;;5008129;28;20037;-79
2023/02/14 10:19:32;;;;;;;28.40;17.70;;;0.70;99.90;;;;;;5007412;28;20085;-79
2023/02/14 10:22:05;;;;;;;26.93;17.87;;;0.70;99.90;;;;;;5008153;28;20026;-79
2023/02/14 10:24:54;;;;;;;32.77;18.17;;;0.80;99.90;;;;;;5005366;28;20032;-78
2023/02/14 10:27:41;;;;;;;31.17;20.47;;;0.80;99.90;;;;;;5008149;28;20034;-79
2023/02/14 10:30:14;;;;;;;26.47;18.17;;;0.80;99.90;;;;;;5007006;28;20025;-78
2023/02/14 10:32:47;;;;;;;27.03;17.97;;;0.90;99.90;;;;;;5008230;28;20053;-78
2023/02/14 10:35:18;;;;;;;32.20;18.67;;;1.00;99.90;;;;;;5003326;28;20065;-79
2023/02/14 10:37:58;;;;;;;29.80;18.77;;;1.00;99.90;;;;;;5006247;28;20035;-79
2023/02/14 10:40:30;;;;;;;25.23;17.13;;;1.10;99.90;;;;;;4993583;28;20124;-81
2023/02/14 10:43:04;;;;;;;27.43;17.30;;;1.20;99.90;;;;;;4994124;28;20029;-80
2023/02/14 10:45:44;;;;;;;26.97;16.93;;;1.20;99.90;;;;;;4995574;28;20038;-80
2023/02/14 10:48:17;;;;;;;26.97;17.43;;;1.30;99.90;;;;;;4998250;28;20025;-77
2023/02/14 10:50:53;;;;;;;31.07;18.80;;;1.30;99.90;;;;;;5002567;28;20022;-77
2023/02/14 10:53:21;;;;;;;31.10;19.30;;;1.30;99.90;;;;;;5001935;28;20113;-77
2023/02/14 10:55:56;;;;;;;28.30;17.57;;;1.30;99.90;;;;;;5000065;28;20049;-77
2023/02/14 10:58:25;;;;;;;23.10;16.10;;;1.40;99.90;;;;;;5000553;28;20148;-77
2023/02/14 11:01:13;;;;;;;25.63;15.90;;;1.50;99.90;;;;;;5000116;28;20049;-77
2023/02/14 11:03:46;;;;;;;22.77;15.43;;;1.60;99.90;;;;;;4999514;28;20401;-77
2023/02/14 11:06:12;;;;;;;26.20;17.23;;;1.70;99.90;;;;;;5000400;28;20058;-77
2023/02/14 11:08:40;;;;;;;26.20;17.83;;;1.70;99.90;;;;;;5001240;28;20028;-77
2023/02/14 11:11:14;;;;;;;28.13;18.33;;;1.90;99.90;;;;;;5001279;28;20108;-77
2023/02/14 11:13:40;;;;;;;26.10;17.20;;;2.00;99.90;;;;;;4999998;28;20018;-77
2023/02/14 11:16:08;;;;;;;27.83;18.97;;;2.00;99.90;;;;;;5000528;28;20272;-77
2023/02/14 11:18:35;;;;;;;26.90;17.47;;;1.90;99.90;;;;;;5000913;28;20021;-77
2023/02/14 11:21:05;;;;;;;25.73;16.77;;;1.90;99.90;;;;;;5000455;28;20030;-77
2023/02/14 11:23:52;;;;;;;25.10;16.30;;;1.90;99.90;;;;;;5000412;28;20022;-77
2023/02/14 11:26:31;;;;;;;33.00;19.03;;;2.00;99.90;;;;;;4999345;28;20129;-77
2023/02/14 11:29:12;;;;;;;52.53;28.27;;;2.10;99.90;;;;;;4998667;28;20053;-77
2023/02/14 11:31:39;;;;;;;24.20;16.73;;;2.30;99.90;;;;;;4997052;28;20048;-77
2023/02/14 11:34:35;;;;;;;78.03;33.03;;;2.40;99.90;;;;;;4998460;28;20429;-77
2023/02/14 11:37:02;;;;;;;;;;;2.40;99.90;;;;;;4999577;28;20506;-77
2023/02/14 11:39:33;;;;;;;28.43;17.77;;;2.50;99.90;;;;;;4997910;28;19917;-77
2023/02/14 11:42:03;;;;;;;46.43;24.97;;;2.50;99.90;;;;;;4999915;28;20026;-77
2023/02/14 11:44:31;;;;;;;74.47;36.73;;;2.50;99.90;;;;;;5001317;28;20037;-77
2023/02/14 11:47:23;;;;;;;21.80;15.77;;;2.40;99.90;;;;;;4995368;28;20030;-77
2023/02/14 11:50:21;;;;;;;24.33;16.07;;;2.40;99.90;;;;;;4997344;28;20443;-81
2023/02/14 11:52:51;;;;;;;41.63;27.03;;;2.40;99.90;;;;;;4998570;28;20038;-77
2023/02/14 11:55:34;;;;;;;33.73;20.50;;;2.40;99.90;;;;;;5001238;28;20026;-79
2023/02/14 11:58:02;;;;;;;23.33;17.63;;;2.50;99.90;;;;;;4997598;28;21126;-77
2023/02/14 12:00:30;;;;;;;25.93;16.57;;;2.50;99.90;;;;;;4998070;28;20522;-77
2023/02/14 12:02:59;;;;;;;23.30;15.90;;;2.80;99.90;;;;;;4997602;28;20029;-77
2023/02/14 12:05:31;;;;;;;22.73;16.30;;;3.00;99.90;;;;;;4997417;28;20153;-77
2023/02/14 12:08:06;;;;;;;26.47;17.30;;;3.10;99.90;;;;;;4994982;28;20041;-81
2023/02/14 12:10:34;;;;;;;23.03;16.60;;;3.10;99.90;;;;;;4987582;28;20030;-81
2023/02/14 12:13:23;;;;;;;32.13;20.13;;;3.20;99.90;;;;;;4995006;28;20120;-79
2023/02/14 12:15:53;;;;;;;26.80;17.83;;;3.30;99.90;;;;;;5004482;28;20018;-78
2023/02/14 12:18:40;;;;;;;26.73;18.63;;;3.30;99.90;;;;;;4997996;28;20033;-81
2023/02/14 12:21:26;;;;;;;27.10;17.90;;;3.60;99.90;;;;;;4992767;28;20664;-81
2023/02/14 12:24:26;;;;;;;27.60;18.63;;;4.10;99.90;;;;;;4993201;28;20101;-80
2023/02/14 12:27:04;;;;;;;29.03;19.57;;;4.20;99.90;;;;;;4990236;28;20026;-80
2023/02/14 12:30:06;;;;;;;28.40;19.37;;;4.20;99.90;;;;;;4990508;28;20030;-81
2023/02/14 12:32:34;;;;;;;31.67;20.40;;;4.10;99.90;;;;;;4998696;28;20026;-77
2023/02/14 12:35:14;;;;;;;27.97;19.77;;;4.00;99.90;;;;;;4994220;28;20033;-79
2023/02/14 12:38:07;;;;;;;27.90;19.83;;;4.00;99.90;;;;;;5001937;28;20022;-79
2023/02/14 12:40:50;;;;;;;29.10;21.63;;;4.10;99.90;;;;;;4989246;28;20072;-81
2023/02/14 12:43:37;;;;;;;28.70;19.07;;;4.10;99.90;;;;;;4997624;28;20050;-78
2023/02/14 12:46:36;;;;;;;28.17;19.47;;;4.20;99.90;;;;;;4998670;28;20030;-77
2023/02/14 12:49:14;;;;;;;27.50;19.90;;;4.40;99.90;;;;;;4996774;28;20108;-81
2023/02/14 12:51:58;;;;;;;29.27;18.93;;;4.70;99.90;;;;;;4988884;28;20159;-81
2023/02/14 12:54:56;;;;;;;19.92;14.18;;;4.90;99.90;;;;;;4990169;28;20108;-81
2023/02/14 12:57:45;;;;;;;26.27;18.37;;;4.80;99.90;;;;;;4988589;28;20030;-81
2023/02/14 13:00:24;;;;;;;25.97;18.57;;;4.70;99.90;;;;;;4997461;28;20437;-79
2023/02/14 13:03:15;;;;;;;27.67;18.10;;;4.60;99.90;;;;;;4993848;28;20275;-80
2023/02/14 13:05:53;;;;;;;26.10;19.40;;;4.50;99.90;;;;;;4992276;28;20073;-77
2023/02/14 13:09:00;;;;;;;25.00;18.53;;;4.40;99.90;;;;;;4995783;28;20109;-79
2023/02/14 13:11:52;;;;;;;25.93;18.90;;;4.40;99.90;;;;;;5010713;28;20057;-77
2023/02/14 13:14:20;;;;;;;33.13;19.53;;;4.60;99.90;;;;;;4988067;28;20041;-81